sensor_id;sensor_type;location;lat;lon;timestamp;P1;durP1;ratioP1;P2;durP2;ratioP2
40951;SDS011;26682;51.660;19.338;2022-07-05T00:00:58;16.75;;;15.13;;
40951;SDS011;26682;51.660;19.338;2022-07-05T00:02:45;15.67;;;14.10;;
40951;SDS011;26682;51.660;19.338;2022-07-05T00:04:30;15.95;;;14.27;;
40951;SDS011;26682;51.660;19.338;2022-07-05T00:06:17;17.73;;;15.38;;
40951;SDS011;26682;51.660;19.338;2022-07-05T00:08:03;16.52;;;14.52;;
40951;SDS011;26682;51.660;19.338;2022-07-05T00:09:51;15.55;;;14.15;;
40951;SDS011;26682;51.660;19.338;2022-07-05T00:11:38;15.40;;;14.00;;
40951;SDS011;26682;51.660;19.338;2022-07-05T00:13:24;15.02;;;13.52;;
40951;SDS011;26682;51.660;19.338;2022-07-05T00:15:10;15.30;;;13.77;;
40951;SDS011;26682;51.660;19.338;2022-07-05T00:16:56;14.90;;;13.32;;
40951;SDS011;26682;51.660;19.338;2022-07-05T00:18:42;14.75;;;13.35;;
40951;SDS011;26682;51.660;19.338;2022-07-05T00:20:28;14.50;;;13.15;;
40951;SDS011;26682;51.660;19.338;2022-07-05T00:22:14;13.00;;;11.88;;
40951;SDS011;26682;51.660;19.338;2022-07-05T00:24:00;14.43;;;12.93;;
40951;SDS011;26682;51.660;19.338;2022-07-05T00:25:46;15.27;;;13.02;;
40951;SDS011;26682;51.660;19.338;2022-07-05T00:27:32;14.38;;;12.88;;
40951;SDS011;26682;51.660;19.338;2022-07-05T00:29:18;14.80;;;13.35;;
40951;SDS011;26682;51.660;19.338;2022-07-05T00:31:04;13.48;;;12.23;;
40951;SDS011;26682;51.660;19.338;2022-07-05T00:32:50;13.55;;;12.13;;
40951;SDS011;26682;51.660;19.338;2022-07-05T00:34:36;12.65;;;10.73;;
40951;SDS011;26682;51.660;19.338;2022-07-05T00:36:22;11.20;;;10.20;;
40951;SDS011;26682;51.660;19.338;2022-07-05T00:38:08;11.43;;;10.32;;
40951;SDS011;26682;51.660;19.338;2022-07-05T00:39:54;11.88;;;10.82;;
40951;SDS011;26682;51.660;19.338;2022-07-05T00:41:40;11.45;;;10.32;;
40951;SDS011;26682;51.660;19.338;2022-07-05T00:43:26;11.55;;;10.45;;
40951;SDS011;26682;51.660;19.338;2022-07-05T00:45:12;13.55;;;10.80;;
40951;SDS011;26682;51.660;19.338;2022-07-05T00:46:58;12.18;;;10.90;;
40951;SDS011;26682;51.660;19.338;2022-07-05T00:48:45;9.88;;;8.98;;
40951;SDS011;26682;51.660;19.338;2022-07-05T00:50:31;10.18;;;9.23;;
40951;SDS011;26682;51.660;19.338;2022-07-05T00:52:17;10.80;;;9.55;;
40951;SDS011;26682;51.660;19.338;2022-07-05T00:54:04;10.98;;;9.95;;
40951;SDS011;26682;51.660;19.338;2022-07-05T00:55:52;13.43;;;9.85;;
40951;SDS011;26682;51.660;19.338;2022-07-05T00:57:38;12.18;;;10.00;;
40951;SDS011;26682;51.660;19.338;2022-07-05T00:59:24;11.32;;;10.32;;
40951;SDS011;26682;51.660;19.338;2022-07-05T01:01:11;12.63;;;11.48;;
40951;SDS011;26682;51.660;19.338;2022-07-05T01:02:57;12.60;;;10.57;;
40951;SDS011;26682;51.660;19.338;2022-07-05T01:04:43;14.43;;;10.57;;
40951;SDS011;26682;51.660;19.338;2022-07-05T01:06:29;12.25;;;11.15;;
40951;SDS011;26682;51.660;19.338;2022-07-05T01:08:15;13.38;;;11.02;;
40951;SDS011;26682;51.660;19.338;2022-07-05T01:10:01;12.20;;;10.90;;
40951;SDS011;26682;51.660;19.338;2022-07-05T01:11:48;12.93;;;11.25;;
40951;SDS011;26682;51.660;19.338;2022-07-05T01:13:36;12.70;;;11.35;;
40951;SDS011;26682;51.660;19.338;2022-07-05T01:15:22;9.18;;;8.02;;
40951;SDS011;26682;51.660;19.338;2022-07-05T01:17:09;12.50;;;11.32;;
40951;SDS011;26682;51.660;19.338;2022-07-05T01:18:55;12.52;;;11.32;;
40951;SDS011;26682;51.660;19.338;2022-07-05T01:20:42;13.88;;;12.50;;
40951;SDS011;26682;51.660;19.338;2022-07-05T01:22:31;13.00;;;11.70;;
40951;SDS011;26682;51.660;19.338;2022-07-05T01:24:34;13.15;;;12.05;;
40951;SDS011;26682;51.660;19.338;2022-07-05T01:26:20;13.90;;;12.60;;
40951;SDS011;26682;51.660;19.338;2022-07-05T01:28:06;13.80;;;12.52;;
40951;SDS011;26682;51.660;19.338;2022-07-05T01:29:52;13.52;;;12.30;;
40951;SDS011;26682;51.660;19.338;2022-07-05T01:31:39;18.85;;;13.27;;
40951;SDS011;26682;51.660;19.338;2022-07-05T01:33:28;13.52;;;12.13;;
40951;SDS011;26682;51.660;19.338;2022-07-05T01:35:15;12.35;;;11.10;;
40951;SDS011;26682;51.660;19.338;2022-07-05T01:37:11;12.38;;;11.18;;
40951;SDS011;26682;51.660;19.338;2022-07-05T01:38:58;11.73;;;10.65;;
40951;SDS011;26682;51.660;19.338;2022-07-05T01:42:31;12.98;;;11.50;;
40951;SDS011;26682;51.660;19.338;2022-07-05T01:44:18;12.75;;;11.50;;
40951;SDS011;26682;51.660;19.338;2022-07-05T01:46:04;11.85;;;10.82;;
40951;SDS011;26682;51.660;19.338;2022-07-05T01:47:50;13.07;;;10.60;;
40951;SDS011;26682;51.660;19.338;2022-07-05T01:49:41;13.18;;;12.07;;
40951;SDS011;26682;51.660;19.338;2022-07-05T01:51:34;14.77;;;12.38;;
40951;SDS011;26682;51.660;19.338;2022-07-05T01:53:27;10.95;;;10.05;;
40951;SDS011;26682;51.660;19.338;2022-07-05T01:55:14;12.43;;;11.25;;
40951;SDS011;26682;51.660;19.338;2022-07-05T01:57:00;13.40;;;12.27;;
40951;SDS011;26682;51.660;19.338;2022-07-05T01:58:46;14.05;;;12.68;;
40951;SDS011;26682;51.660;19.338;2022-07-05T02:00:40;13.52;;;12.23;;
40951;SDS011;26682;51.660;19.338;2022-07-05T02:02:27;17.40;;;12.60;;
40951;SDS011;26682;51.660;19.338;2022-07-05T02:04:13;13.55;;;12.27;;
40951;SDS011;26682;51.660;19.338;2022-07-05T02:05:59;15.20;;;12.73;;
40951;SDS011;26682;51.660;19.338;2022-07-05T02:07:47;13.85;;;12.65;;
40951;SDS011;26682;51.660;19.338;2022-07-05T02:09:35;13.75;;;12.55;;
40951;SDS011;26682;51.660;19.338;2022-07-05T02:11:22;13.63;;;12.43;;
40951;SDS011;26682;51.660;19.338;2022-07-05T02:13:08;14.20;;;12.90;;
40951;SDS011;26682;51.660;19.338;2022-07-05T02:14:55;13.52;;;12.23;;
40951;SDS011;26682;51.660;19.338;2022-07-05T02:16:42;14.05;;;12.45;;
40951;SDS011;26682;51.660;19.338;2022-07-05T02:18:27;15.52;;;13.40;;
40951;SDS011;26682;51.660;19.338;2022-07-05T02:20:14;13.40;;;12.07;;
40951;SDS011;26682;51.660;19.338;2022-07-05T02:22:01;14.63;;;13.13;;
40951;SDS011;26682;51.660;19.338;2022-07-05T02:23:47;14.05;;;12.80;;
40951;SDS011;26682;51.660;19.338;2022-07-05T02:25:34;13.60;;;12.30;;
40951;SDS011;26682;51.660;19.338;2022-07-05T02:27:24;13.07;;;11.80;;
40951;SDS011;26682;51.660;19.338;2022-07-05T02:29:11;12.70;;;11.60;;
40951;SDS011;26682;51.660;19.338;2022-07-05T02:30:58;13.82;;;12.23;;
40951;SDS011;26682;51.660;19.338;2022-07-05T02:32:45;13.77;;;12.43;;
40951;SDS011;26682;51.660;19.338;2022-07-05T02:34:31;14.00;;;12.60;;
40951;SDS011;26682;51.660;19.338;2022-07-05T02:36:17;14.57;;;12.93;;
40951;SDS011;26682;51.660;19.338;2022-07-05T02:38:04;15.65;;;13.27;;
40951;SDS011;26682;51.660;19.338;2022-07-05T02:39:49;14.40;;;12.82;;
40951;SDS011;26682;51.660;19.338;2022-07-05T02:41:36;15.02;;;13.52;;
40951;SDS011;26682;51.660;19.338;2022-07-05T02:43:22;14.63;;;13.15;;
40951;SDS011;26682;51.660;19.338;2022-07-05T02:45:08;14.20;;;12.57;;
40951;SDS011;26682;51.660;19.338;2022-07-05T02:46:55;14.18;;;12.77;;
40951;SDS011;26682;51.660;19.338;2022-07-05T02:48:42;15.17;;;13.57;;
40951;SDS011;26682;51.660;19.338;2022-07-05T02:50:29;16.33;;;12.95;;
40951;SDS011;26682;51.660;19.338;2022-07-05T02:52:16;13.75;;;12.50;;
40951;SDS011;26682;51.660;19.338;2022-07-05T02:54:02;14.40;;;13.13;;
40951;SDS011;26682;51.660;19.338;2022-07-05T02:55:51;13.88;;;12.77;;
40951;SDS011;26682;51.660;19.338;2022-07-05T02:57:37;13.88;;;12.65;;
40951;SDS011;26682;51.660;19.338;2022-07-05T02:59:26;14.80;;;13.32;;
40951;SDS011;26682;51.660;19.338;2022-07-05T03:01:13;15.13;;;13.63;;
40951;SDS011;26682;51.660;19.338;2022-07-05T03:02:59;15.30;;;13.90;;
40951;SDS011;26682;51.660;19.338;2022-07-05T03:04:48;14.65;;;13.45;;
40951;SDS011;26682;51.660;19.338;2022-07-05T03:06:34;16.20;;;14.25;;
40951;SDS011;26682;51.660;19.338;2022-07-05T03:08:20;15.27;;;13.90;;
40951;SDS011;26682;51.660;19.338;2022-07-05T03:10:07;15.65;;;14.02;;
40951;SDS011;26682;51.660;19.338;2022-07-05T03:11:54;15.95;;;14.52;;
40951;SDS011;26682;51.660;19.338;2022-07-05T03:13:40;15.77;;;14.18;;
40951;SDS011;26682;51.660;19.338;2022-07-05T03:15:27;16.55;;;14.32;;
40951;SDS011;26682;51.660;19.338;2022-07-05T03:17:13;16.42;;;14.65;;
40951;SDS011;26682;51.660;19.338;2022-07-05T03:19:00;16.38;;;14.70;;
40951;SDS011;26682;51.660;19.338;2022-07-05T03:20:46;15.68;;;14.18;;
40951;SDS011;26682;51.660;19.338;2022-07-05T03:22:33;16.58;;;14.85;;
40951;SDS011;26682;51.660;19.338;2022-07-05T03:24:20;15.55;;;14.00;;
40951;SDS011;26682;51.660;19.338;2022-07-05T03:26:06;15.77;;;14.38;;
40951;SDS011;26682;51.660;19.338;2022-07-05T03:27:52;16.52;;;14.90;;
40951;SDS011;26682;51.660;19.338;2022-07-05T03:29:38;15.55;;;13.98;;
40951;SDS011;26682;51.660;19.338;2022-07-05T03:31:25;14.80;;;13.50;;
40951;SDS011;26682;51.660;19.338;2022-07-05T03:33:11;15.32;;;13.82;;
40951;SDS011;26682;51.660;19.338;2022-07-05T03:35:01;14.77;;;13.32;;
40951;SDS011;26682;51.660;19.338;2022-07-05T03:36:47;14.45;;;13.02;;
40951;SDS011;26682;51.660;19.338;2022-07-05T03:38:36;14.25;;;12.88;;
40951;SDS011;26682;51.660;19.338;2022-07-05T03:40:23;14.15;;;12.65;;
40951;SDS011;26682;51.660;19.338;2022-07-05T03:42:09;14.13;;;11.55;;
40951;SDS011;26682;51.660;19.338;2022-07-05T03:43:55;12.10;;;11.00;;
40951;SDS011;26682;51.660;19.338;2022-07-05T03:45:41;11.85;;;10.75;;
40951;SDS011;26682;51.660;19.338;2022-07-05T03:47:28;12.38;;;11.00;;
40951;SDS011;26682;51.660;19.338;2022-07-05T03:49:14;12.05;;;10.85;;
40951;SDS011;26682;51.660;19.338;2022-07-05T03:51:00;11.85;;;10.85;;
40951;SDS011;26682;51.660;19.338;2022-07-05T03:52:46;13.13;;;11.68;;
40951;SDS011;26682;51.660;19.338;2022-07-05T03:54:33;10.07;;;8.10;;
40951;SDS011;26682;51.660;19.338;2022-07-05T03:56:22;13.23;;;11.38;;
40951;SDS011;26682;51.660;19.338;2022-07-05T03:58:11;12.80;;;11.70;;
40951;SDS011;26682;51.660;19.338;2022-07-05T03:59:57;11.18;;;10.27;;
40951;SDS011;26682;51.660;19.338;2022-07-05T04:01:43;14.73;;;10.88;;
40951;SDS011;26682;51.660;19.338;2022-07-05T04:03:32;13.77;;;10.88;;
40951;SDS011;26682;51.660;19.338;2022-07-05T04:05:18;12.82;;;11.43;;
40951;SDS011;26682;51.660;19.338;2022-07-05T04:07:05;12.65;;;11.40;;
40951;SDS011;26682;51.660;19.338;2022-07-05T04:08:53;12.40;;;11.13;;
40951;SDS011;26682;51.660;19.338;2022-07-05T04:10:39;12.77;;;10.95;;
40951;SDS011;26682;51.660;19.338;2022-07-05T04:12:25;12.98;;;11.73;;
40951;SDS011;26682;51.660;19.338;2022-07-05T04:14:12;12.10;;;10.95;;
40951;SDS011;26682;51.660;19.338;2022-07-05T04:16:00;13.10;;;10.50;;
40951;SDS011;26682;51.660;19.338;2022-07-05T04:17:47;11.05;;;9.88;;
40951;SDS011;26682;51.660;19.338;2022-07-05T04:19:35;12.38;;;9.90;;
40951;SDS011;26682;51.660;19.338;2022-07-05T04:21:21;11.23;;;9.65;;
40951;SDS011;26682;51.660;19.338;2022-07-05T04:23:08;11.55;;;9.93;;
40951;SDS011;26682;51.660;19.338;2022-07-05T04:24:54;10.15;;;9.25;;
40951;SDS011;26682;51.660;19.338;2022-07-05T04:26:59;12.82;;;9.30;;
40951;SDS011;26682;51.660;19.338;2022-07-05T04:28:46;10.00;;;9.07;;
40951;SDS011;26682;51.660;19.338;2022-07-05T04:30:39;10.25;;;8.95;;
40951;SDS011;26682;51.660;19.338;2022-07-05T04:32:27;9.57;;;8.68;;
40951;SDS011;26682;51.660;19.338;2022-07-05T04:36:39;11.00;;;8.05;;
40951;SDS011;26682;51.660;19.338;2022-07-05T04:38:26;9.82;;;7.65;;
40951;SDS011;26682;51.660;19.338;2022-07-05T04:40:15;8.27;;;7.43;;
40951;SDS011;26682;51.660;19.338;2022-07-05T04:42:01;9.02;;;8.00;;
40951;SDS011;26682;51.660;19.338;2022-07-05T04:43:47;9.45;;;8.15;;
40951;SDS011;26682;51.660;19.338;2022-07-05T04:45:33;9.55;;;8.32;;
40951;SDS011;26682;51.660;19.338;2022-07-05T04:47:20;12.43;;;7.63;;
40951;SDS011;26682;51.660;19.338;2022-07-05T04:49:06;8.18;;;7.38;;
40951;SDS011;26682;51.660;19.338;2022-07-05T04:50:52;7.70;;;7.00;;
40951;SDS011;26682;51.660;19.338;2022-07-05T04:52:39;11.07;;;6.93;;
40951;SDS011;26682;51.660;19.338;2022-07-05T04:54:25;7.88;;;7.25;;
40951;SDS011;26682;51.660;19.338;2022-07-05T04:56:10;7.95;;;7.15;;
40951;SDS011;26682;51.660;19.338;2022-07-05T04:57:57;10.18;;;7.20;;
40951;SDS011;26682;51.660;19.338;2022-07-05T04:59:43;8.50;;;7.05;;
40951;SDS011;26682;51.660;19.338;2022-07-05T05:01:28;9.07;;;6.93;;
40951;SDS011;26682;51.660;19.338;2022-07-05T05:03:15;8.07;;;7.25;;
40951;SDS011;26682;51.660;19.338;2022-07-05T05:05:00;8.05;;;7.28;;
40951;SDS011;26682;51.660;19.338;2022-07-05T05:06:47;8.35;;;7.30;;
40951;SDS011;26682;51.660;19.338;2022-07-05T05:08:33;9.32;;;7.38;;
40951;SDS011;26682;51.660;19.338;2022-07-05T05:10:19;7.55;;;6.65;;
40951;SDS011;26682;51.660;19.338;2022-07-05T05:12:05;7.45;;;6.75;;
40951;SDS011;26682;51.660;19.338;2022-07-05T05:13:51;7.57;;;6.30;;
40951;SDS011;26682;51.660;19.338;2022-07-05T05:15:37;7.18;;;6.32;;
40951;SDS011;26682;51.660;19.338;2022-07-05T05:17:22;6.90;;;6.10;;
40951;SDS011;26682;51.660;19.338;2022-07-05T05:19:08;6.88;;;6.18;;
40951;SDS011;26682;51.660;19.338;2022-07-05T05:20:55;7.15;;;6.07;;
40951;SDS011;26682;51.660;19.338;2022-07-05T05:22:41;9.50;;;6.20;;
40951;SDS011;26682;51.660;19.338;2022-07-05T05:24:28;6.63;;;6.03;;
40951;SDS011;26682;51.660;19.338;2022-07-05T05:26:16;7.85;;;6.25;;
40951;SDS011;26682;51.660;19.338;2022-07-05T05:28:02;6.20;;;5.60;;
40951;SDS011;26682;51.660;19.338;2022-07-05T05:29:49;8.30;;;6.10;;
40951;SDS011;26682;51.660;19.338;2022-07-05T05:31:35;8.90;;;6.10;;
40951;SDS011;26682;51.660;19.338;2022-07-05T05:33:20;9.00;;;5.45;;
40951;SDS011;26682;51.660;19.338;2022-07-05T05:35:07;7.65;;;5.65;;
40951;SDS011;26682;51.660;19.338;2022-07-05T05:36:53;8.52;;;6.05;;
40951;SDS011;26682;51.660;19.338;2022-07-05T05:38:39;10.52;;;5.90;;
40951;SDS011;26682;51.660;19.338;2022-07-05T05:40:25;6.47;;;5.50;;
40951;SDS011;26682;51.660;19.338;2022-07-05T05:42:11;7.88;;;5.25;;
40951;SDS011;26682;51.660;19.338;2022-07-05T05:43:57;6.43;;;5.35;;
40951;SDS011;26682;51.660;19.338;2022-07-05T05:45:44;7.65;;;5.22;;
40951;SDS011;26682;51.660;19.338;2022-07-05T05:47:30;6.85;;;5.60;;
40951;SDS011;26682;51.660;19.338;2022-07-05T05:49:16;8.68;;;5.15;;
40951;SDS011;26682;51.660;19.338;2022-07-05T05:51:02;10.80;;;5.40;;
40951;SDS011;26682;51.660;19.338;2022-07-05T05:52:50;7.65;;;5.05;;
40951;SDS011;26682;51.660;19.338;2022-07-05T05:54:36;8.98;;;5.30;;
40951;SDS011;26682;51.660;19.338;2022-07-05T05:56:22;7.10;;;4.88;;
40951;SDS011;26682;51.660;19.338;2022-07-05T05:59:57;5.43;;;4.93;;
40951;SDS011;26682;51.660;19.338;2022-07-05T06:01:43;5.53;;;4.63;;
40951;SDS011;26682;51.660;19.338;2022-07-05T06:03:29;5.45;;;4.80;;
40951;SDS011;26682;51.660;19.338;2022-07-05T06:05:15;7.40;;;4.93;;
40951;SDS011;26682;51.660;19.338;2022-07-05T06:07:02;5.82;;;5.00;;
40951;SDS011;26682;51.660;19.338;2022-07-05T06:08:48;5.57;;;4.70;;
40951;SDS011;26682;51.660;19.338;2022-07-05T06:10:34;5.22;;;4.57;;
40951;SDS011;26682;51.660;19.338;2022-07-05T06:12:21;5.07;;;4.32;;
40951;SDS011;26682;51.660;19.338;2022-07-05T06:14:07;7.15;;;4.40;;
40951;SDS011;26682;51.660;19.338;2022-07-05T06:15:54;7.70;;;4.18;;
40951;SDS011;26682;51.660;19.338;2022-07-05T06:17:40;8.80;;;4.90;;
40951;SDS011;26682;51.660;19.338;2022-07-05T06:19:26;5.28;;;4.45;;
40951;SDS011;26682;51.660;19.338;2022-07-05T06:21:12;4.65;;;4.25;;
40951;SDS011;26682;51.660;19.338;2022-07-05T06:22:59;5.18;;;4.30;;
40951;SDS011;26682;51.660;19.338;2022-07-05T06:24:46;5.68;;;4.60;;
40951;SDS011;26682;51.660;19.338;2022-07-05T06:26:31;6.35;;;4.47;;
40951;SDS011;26682;51.660;19.338;2022-07-05T06:28:18;7.35;;;4.65;;
40951;SDS011;26682;51.660;19.338;2022-07-05T06:30:05;8.15;;;4.78;;
40951;SDS011;26682;51.660;19.338;2022-07-05T06:31:52;5.65;;;5.13;;
40951;SDS011;26682;51.660;19.338;2022-07-05T06:33:38;5.03;;;4.47;;
40951;SDS011;26682;51.660;19.338;2022-07-05T06:35:24;6.35;;;4.40;;
40951;SDS011;26682;51.660;19.338;2022-07-05T06:37:11;4.65;;;3.90;;
40951;SDS011;26682;51.660;19.338;2022-07-05T06:38:57;6.25;;;4.70;;
40951;SDS011;26682;51.660;19.338;2022-07-05T06:40:43;6.25;;;4.78;;
40951;SDS011;26682;51.660;19.338;2022-07-05T06:42:29;5.93;;;4.43;;
40951;SDS011;26682;51.660;19.338;2022-07-05T06:44:15;6.10;;;4.95;;
40951;SDS011;26682;51.660;19.338;2022-07-05T06:46:01;6.72;;;5.13;;
40951;SDS011;26682;51.660;19.338;2022-07-05T06:47:59;6.72;;;4.40;;
40951;SDS011;26682;51.660;19.338;2022-07-05T06:49:52;5.80;;;4.90;;
40951;SDS011;26682;51.660;19.338;2022-07-05T06:51:38;6.63;;;4.65;;
40951;SDS011;26682;51.660;19.338;2022-07-05T06:53:24;5.28;;;4.57;;
40951;SDS011;26682;51.660;19.338;2022-07-05T06:55:10;7.45;;;5.07;;
40951;SDS011;26682;51.660;19.338;2022-07-05T06:56:56;7.88;;;4.75;;
40951;SDS011;26682;51.660;19.338;2022-07-05T06:58:42;5.10;;;4.28;;
40951;SDS011;26682;51.660;19.338;2022-07-05T07:00:28;8.27;;;4.60;;
40951;SDS011;26682;51.660;19.338;2022-07-05T07:02:14;4.88;;;4.30;;
40951;SDS011;26682;51.660;19.338;2022-07-05T07:04:01;4.70;;;4.30;;
40951;SDS011;26682;51.660;19.338;2022-07-05T07:05:47;5.75;;;4.30;;
40951;SDS011;26682;51.660;19.338;2022-07-05T07:07:33;7.32;;;4.47;;
40951;SDS011;26682;51.660;19.338;2022-07-05T07:09:38;6.90;;;4.45;;
40951;SDS011;26682;51.660;19.338;2022-07-05T07:11:24;5.68;;;4.30;;
40951;SDS011;26682;51.660;19.338;2022-07-05T07:13:10;5.97;;;4.38;;
40951;SDS011;26682;51.660;19.338;2022-07-05T07:14:57;7.07;;;4.57;;
40951;SDS011;26682;51.660;19.338;2022-07-05T07:16:43;6.38;;;4.50;;
40951;SDS011;26682;51.660;19.338;2022-07-05T07:18:29;7.47;;;4.55;;
40951;SDS011;26682;51.660;19.338;2022-07-05T07:20:17;5.82;;;4.75;;
40951;SDS011;26682;51.660;19.338;2022-07-05T07:22:04;6.30;;;4.82;;
40951;SDS011;26682;51.660;19.338;2022-07-05T07:23:50;7.55;;;5.00;;
40951;SDS011;26682;51.660;19.338;2022-07-05T07:25:36;7.80;;;4.53;;
40951;SDS011;26682;51.660;19.338;2022-07-05T07:27:22;7.88;;;4.30;;
40951;SDS011;26682;51.660;19.338;2022-07-05T07:29:08;6.57;;;4.13;;
40951;SDS011;26682;51.660;19.338;2022-07-05T07:30:54;8.68;;;4.20;;
40951;SDS011;26682;51.660;19.338;2022-07-05T07:32:40;4.32;;;3.92;;
40951;SDS011;26682;51.660;19.338;2022-07-05T07:34:27;6.30;;;3.88;;
40951;SDS011;26682;51.660;19.338;2022-07-05T07:36:13;6.50;;;4.07;;
40951;SDS011;26682;51.660;19.338;2022-07-05T07:37:59;5.03;;;3.92;;
40951;SDS011;26682;51.660;19.338;2022-07-05T07:39:45;5.57;;;4.13;;
40951;SDS011;26682;51.660;19.338;2022-07-05T07:41:31;5.20;;;4.22;;
40951;SDS011;26682;51.660;19.338;2022-07-05T07:43:17;6.03;;;4.15;;
40951;SDS011;26682;51.660;19.338;2022-07-05T07:45:04;5.82;;;4.20;;
40951;SDS011;26682;51.660;19.338;2022-07-05T07:46:51;6.70;;;4.07;;
40951;SDS011;26682;51.660;19.338;2022-07-05T07:48:37;4.88;;;3.67;;
40951;SDS011;26682;51.660;19.338;2022-07-05T07:50:23;4.53;;;4.00;;
40951;SDS011;26682;51.660;19.338;2022-07-05T07:52:09;5.80;;;3.70;;
40951;SDS011;26682;51.660;19.338;2022-07-05T07:53:55;6.82;;;4.10;;
40951;SDS011;26682;51.660;19.338;2022-07-05T07:55:41;5.93;;;3.75;;
40951;SDS011;26682;51.660;19.338;2022-07-05T07:57:27;5.57;;;3.85;;
40951;SDS011;26682;51.660;19.338;2022-07-05T07:59:13;10.10;;;4.05;;
40951;SDS011;26682;51.660;19.338;2022-07-05T08:00:59;5.00;;;3.50;;
40951;SDS011;26682;51.660;19.338;2022-07-05T08:02:45;13.85;;;3.85;;
40951;SDS011;26682;51.660;19.338;2022-07-05T08:04:31;11.32;;;4.38;;
40951;SDS011;26682;51.660;19.338;2022-07-05T08:06:17;4.97;;;3.58;;
40951;SDS011;26682;51.660;19.338;2022-07-05T08:08:03;7.30;;;3.70;;
40951;SDS011;26682;51.660;19.338;2022-07-05T08:09:49;5.88;;;3.70;;
40951;SDS011;26682;51.660;19.338;2022-07-05T08:11:38;4.88;;;3.88;;
40951;SDS011;26682;51.660;19.338;2022-07-05T08:13:24;5.10;;;3.72;;
40951;SDS011;26682;51.660;19.338;2022-07-05T08:15:10;8.63;;;3.60;;
40951;SDS011;26682;51.660;19.338;2022-07-05T08:16:56;4.05;;;3.30;;
40951;SDS011;26682;51.660;19.338;2022-07-05T08:18:46;4.05;;;3.00;;
40951;SDS011;26682;51.660;19.338;2022-07-05T08:20:51;4.07;;;3.13;;
40951;SDS011;26682;51.660;19.338;2022-07-05T08:22:55;7.07;;;3.17;;
40951;SDS011;26682;51.660;19.338;2022-07-05T08:24:41;3.15;;;2.85;;
40951;SDS011;26682;51.660;19.338;2022-07-05T08:26:28;3.20;;;2.90;;
40951;SDS011;26682;51.660;19.338;2022-07-05T08:28:16;5.70;;;3.03;;
40951;SDS011;26682;51.660;19.338;2022-07-05T08:30:02;5.65;;;3.17;;
40951;SDS011;26682;51.660;19.338;2022-07-05T08:31:49;3.38;;;2.85;;
40951;SDS011;26682;51.660;19.338;2022-07-05T08:33:37;4.70;;;2.75;;
40951;SDS011;26682;51.660;19.338;2022-07-05T08:35:23;6.15;;;3.20;;
40951;SDS011;26682;51.660;19.338;2022-07-05T08:37:09;5.28;;;3.05;;
40951;SDS011;26682;51.660;19.338;2022-07-05T08:38:56;8.10;;;3.13;;
40951;SDS011;26682;51.660;19.338;2022-07-05T08:40:47;4.78;;;2.97;;
40951;SDS011;26682;51.660;19.338;2022-07-05T08:42:36;9.32;;;3.20;;
40951;SDS011;26682;51.660;19.338;2022-07-05T08:44:23;7.20;;;2.92;;
40951;SDS011;26682;51.660;19.338;2022-07-05T08:46:09;7.47;;;2.88;;
40951;SDS011;26682;51.660;19.338;2022-07-05T08:47:56;6.88;;;3.00;;
40951;SDS011;26682;51.660;19.338;2022-07-05T08:49:45;7.18;;;3.00;;
40951;SDS011;26682;51.660;19.338;2022-07-05T08:51:36;8.00;;;2.67;;
40951;SDS011;26682;51.660;19.338;2022-07-05T08:53:24;4.47;;;3.00;;
40951;SDS011;26682;51.660;19.338;2022-07-05T08:55:10;4.93;;;3.00;;
40951;SDS011;26682;51.660;19.338;2022-07-05T08:56:57;3.47;;;2.53;;
40951;SDS011;26682;51.660;19.338;2022-07-05T08:58:43;4.60;;;2.72;;
40951;SDS011;26682;51.660;19.338;2022-07-05T09:00:29;6.60;;;3.00;;
40951;SDS011;26682;51.660;19.338;2022-07-05T09:02:16;9.27;;;3.00;;
40951;SDS011;26682;51.660;19.338;2022-07-05T09:04:03;3.83;;;2.47;;
40951;SDS011;26682;51.660;19.338;2022-07-05T09:05:51;12.27;;;2.90;;
40951;SDS011;26682;51.660;19.338;2022-07-05T09:07:44;7.97;;;2.97;;
40951;SDS011;26682;51.660;19.338;2022-07-05T09:09:38;8.57;;;2.67;;
40951;SDS011;26682;51.660;19.338;2022-07-05T09:11:35;6.78;;;2.85;;
40951;SDS011;26682;51.660;19.338;2022-07-05T09:13:26;5.82;;;2.45;;
40951;SDS011;26682;51.660;19.338;2022-07-05T09:15:12;7.47;;;2.40;;
40951;SDS011;26682;51.660;19.338;2022-07-05T09:16:58;8.38;;;2.78;;
40951;SDS011;26682;51.660;19.338;2022-07-05T09:18:45;5.85;;;2.60;;
40951;SDS011;26682;51.660;19.338;2022-07-05T09:20:41;9.93;;;3.00;;
40951;SDS011;26682;51.660;19.338;2022-07-05T09:22:40;5.95;;;2.50;;
40951;SDS011;26682;51.660;19.338;2022-07-05T09:24:31;4.75;;;2.70;;
40951;SDS011;26682;51.660;19.338;2022-07-05T09:26:17;6.80;;;3.15;;
40951;SDS011;26682;51.660;19.338;2022-07-05T09:28:04;4.68;;;2.45;;
40951;SDS011;26682;51.660;19.338;2022-07-05T09:29:54;9.93;;;2.95;;
40951;SDS011;26682;51.660;19.338;2022-07-05T09:31:45;5.97;;;2.92;;
40951;SDS011;26682;51.660;19.338;2022-07-05T09:33:34;6.72;;;3.30;;
40951;SDS011;26682;51.660;19.338;2022-07-05T09:35:39;5.97;;;3.08;;
40951;SDS011;26682;51.660;19.338;2022-07-05T09:37:45;7.47;;;2.70;;
40951;SDS011;26682;51.660;19.338;2022-07-05T09:41:21;6.10;;;2.65;;
40951;SDS011;26682;51.660;19.338;2022-07-05T09:43:11;10.25;;;2.83;;
40951;SDS011;26682;51.660;19.338;2022-07-05T09:44:57;10.32;;;3.05;;
40951;SDS011;26682;51.660;19.338;2022-07-05T09:46:43;9.18;;;2.90;;
40951;SDS011;26682;51.660;19.338;2022-07-05T09:48:30;4.80;;;3.03;;
40951;SDS011;26682;51.660;19.338;2022-07-05T09:50:32;10.80;;;3.10;;
40951;SDS011;26682;51.660;19.338;2022-07-05T09:52:35;9.10;;;3.45;;
40951;SDS011;26682;51.660;19.338;2022-07-05T09:54:25;6.40;;;2.90;;
40951;SDS011;26682;51.660;19.338;2022-07-05T09:56:10;7.30;;;2.72;;
40951;SDS011;26682;51.660;19.338;2022-07-05T09:57:57;6.60;;;2.80;;
40951;SDS011;26682;51.660;19.338;2022-07-05T09:59:44;11.27;;;2.75;;
40951;SDS011;26682;51.660;19.338;2022-07-05T10:01:44;6.13;;;2.70;;
40951;SDS011;26682;51.660;19.338;2022-07-05T10:03:30;9.35;;;2.60;;
40951;SDS011;26682;51.660;19.338;2022-07-05T10:05:36;9.90;;;3.30;;
40951;SDS011;26682;51.660;19.338;2022-07-05T10:07:29;9.10;;;3.30;;
40951;SDS011;26682;51.660;19.338;2022-07-05T10:09:17;9.43;;;3.38;;
40951;SDS011;26682;51.660;19.338;2022-07-05T10:11:04;8.63;;;3.63;;
40951;SDS011;26682;51.660;19.338;2022-07-05T10:12:52;6.13;;;3.40;;
40951;SDS011;26682;51.660;19.338;2022-07-05T10:14:40;4.53;;;3.45;;
40951;SDS011;26682;51.660;19.338;2022-07-05T10:16:26;8.88;;;3.70;;
40951;SDS011;26682;51.660;19.338;2022-07-05T10:18:13;5.13;;;3.42;;
40951;SDS011;26682;51.660;19.338;2022-07-05T10:20:07;5.75;;;3.63;;
40951;SDS011;26682;51.660;19.338;2022-07-05T10:22:08;6.22;;;3.50;;
40951;SDS011;26682;51.660;19.338;2022-07-05T10:23:55;9.60;;;4.32;;
40951;SDS011;26682;51.660;19.338;2022-07-05T10:25:43;11.30;;;3.97;;
40951;SDS011;26682;51.660;19.338;2022-07-05T10:27:33;10.68;;;4.00;;
40951;SDS011;26682;51.660;19.338;2022-07-05T10:29:21;6.78;;;4.32;;
40951;SDS011;26682;51.660;19.338;2022-07-05T10:31:07;8.15;;;4.38;;
40951;SDS011;26682;51.660;19.338;2022-07-05T10:32:54;9.50;;;3.80;;
40951;SDS011;26682;51.660;19.338;2022-07-05T10:34:41;9.13;;;4.28;;
40951;SDS011;26682;51.660;19.338;2022-07-05T10:36:31;8.10;;;4.22;;
40951;SDS011;26682;51.660;19.338;2022-07-05T10:38:17;6.38;;;3.97;;